Time;durP1;ratioP1;P1;durP2;ratioP2;P2;SDS_P1;SDS_P2;PMS_P1;PMS_P2;Temp;Humidity;BMP_temperature;BMP_pressure;BME280_temperature;BME280_humidity;BME280_pressure;Samples;Min_cycle;Max_cycle;Signal;HPM_P1;HPM_P2
2022/05/07 00:03:47;;;;;;;;;;;;;;;13.33;67.09;100645.47;5111551;27;20365;-69
2022/05/07 00:06:31;;;;;;;;;;;;;;;13.32;66.99;100648.91;5110683;28;19927;-69
2022/05/07 00:09:15;;;;;;;;;;;;;;;13.32;67.10;100643.72;5111604;28;20073;-68
2022/05/07 00:11:59;;;;;;;;;;;;;;;13.31;67.00;100648.06;5111636;28;19930;-69
2022/05/07 00:14:43;;;;;;;;;;;;;;;13.29;66.71;100646.25;5110925;28;19965;-69
2022/05/07 00:20:31;;;;;;;;;;;;;;;13.29;66.68;100635.84;5111069;28;19927;-69
2022/05/07 00:23:15;;;;;;;;;;;;;;;13.28;66.79;100631.50;5139205;27;19927;-69
2022/05/07 00:25:59;;;;;;;;;;;;;;;13.27;66.71;100635.84;5111266;28;19976;-69
2022/05/07 00:28:44;;;;;;;;;;;;;;;13.25;66.56;100630.59;5111356;28;20436;-69
2022/05/07 00:31:28;;;;;;;;;;;;;;;13.24;66.51;100631.44;5110418;28;19972;-69
2022/05/07 00:34:12;;;;;;;;;;;;;;;13.23;66.34;100634.03;5111076;28;19973;-69
2022/05/07 00:36:56;;;;;;;;;;;;;;;13.22;66.33;100624.47;5111353;28;19973;-69
2022/05/07 00:39:40;;;;;;;;;;;;;;;13.23;66.54;100626.22;5110758;28;19926;-69
2022/05/07 00:42:24;;;;;;;;;;;;;;;13.23;66.60;100624.53;5109707;28;19926;-69
2022/05/07 00:45:08;;;;;;;;;;;;;;;13.23;66.31;100618.41;5110815;28;19926;-68
2022/05/07 00:47:52;;;;;;;;;;;;;;;13.20;65.90;100611.47;5110897;28;20073;-68
2022/05/07 00:53:39;;;;;;;;;;;;;;;13.19;66.35;100617.50;5110458;28;19927;-68
2022/05/07 00:56:23;;;;;;;;;;;;;;;13.21;66.15;100612.31;5109917;28;20340;-68
2022/05/07 00:59:07;;;;;;;;;;;;;;;13.21;66.16;100609.72;5110168;28;19950;-68
2022/05/07 01:01:51;;;;;;;;;;;;;;;13.23;66.32;100610.63;5110251;28;19927;-68
2022/05/07 01:04:35;;;;;;;;;;;;;;;13.23;66.36;100610.63;5111107;28;19982;-69
2022/05/07 01:07:20;;;;;;;;;;;;;;;13.23;66.46;100608.00;5110756;28;19931;-69
2022/05/07 01:10:04;;;;;;;;;;;;;;;13.23;66.40;100605.41;5110996;28;19964;-69
2022/05/07 01:12:48;;;;;;;;;;;;;;;13.23;66.42;100600.19;5109803;28;19927;-69
2022/05/07 01:15:41;;;;;;;;;;;;;;;13.23;66.50;100601.09;5095574;28;19927;-69
2022/05/07 01:18:25;;;;;;;;;;;;;;;13.21;66.10;100594.09;5095928;28;20017;-68
2022/05/07 01:21:17;;;;;;;;;;;;;;;13.23;66.29;100597.59;5097077;28;19927;-68
2022/05/07 01:24:01;;;;;;;;;;;;;;;13.21;66.37;100594.09;5095633;28;19926;-69
2022/05/07 01:26:45;;;;;;;;;;;;;;;13.20;66.02;100607.97;5096596;28;20282;-69
2022/05/07 01:29:28;;;;;;;;;;;;;;;13.19;65.60;100599.28;5096912;28;19927;-69
2022/05/07 01:32:13;;;;;;;;;;;;;;;13.19;65.91;100601.91;5096237;28;20294;-68
2022/05/07 01:34:56;;;;;;;;;;;;;;;13.17;66.12;100598.41;5095586;28;19965;-69
2022/05/07 01:37:40;;;;;;;;;;;;;;;13.19;66.26;100624.44;5096747;28;19927;-69
2022/05/07 01:40:24;;;;;;;;;;;;;;;13.16;65.94;100612.25;5096327;28;20283;-68
2022/05/07 01:43:08;;;;;;;;;;;;;;;13.13;65.63;100612.22;5096362;28;19927;-68
2022/05/07 01:45:52;;;;;;;;;;;;;;;13.10;65.66;100607.84;5096522;28;19927;-69
2022/05/07 01:48:39;;;;;;;;;;;;;;;13.08;65.86;100611.25;5095246;28;19931;-69
2022/05/07 01:51:23;;;;;;;;;;;;;;;13.06;65.63;100605.19;5095570;28;20025;-68
2022/05/07 01:54:08;;;;;;;;;;;;;;;13.04;65.74;100612.09;5096590;28;19926;-68
2022/05/07 01:56:54;;;;;;;;;;;;;;;13.04;65.68;100612.09;5096099;28;20001;-68
2022/05/07 01:59:39;;;;;;;;;;;;;;;13.04;65.74;100607.75;5095732;28;19962;-68
2022/05/07 02:02:23;;;;;;;;;;;;;;;13.02;65.57;100611.19;5095803;28;19927;-69
2022/05/07 02:05:07;;;;;;;;;;;;;;;13.01;65.65;100609.44;5095757;28;19966;-69
2022/05/07 02:07:51;;;;;;;;;;;;;;;13.01;65.38;100596.41;5095740;28;20291;-69
2022/05/07 02:10:35;;;;;;;;;;;;;;;13.02;65.45;100598.16;5095877;28;19946;-69
2022/05/07 02:13:19;;;;;;;;;;;;;;;13.02;65.46;100608.56;5095604;28;19926;-69
2022/05/07 02:16:03;;;;;;;;;;;;;;;13.01;65.26;100602.47;5095672;28;20298;-69
2022/05/07 02:18:47;;;;;;;;;;;;;;;13.01;65.36;100606.81;5095964;28;19927;-69
2022/05/07 02:21:31;;;;;;;;;;;;;;;13.00;65.40;100602.47;5094852;28;20340;-68
2022/05/07 02:24:15;;;;;;;;;;;;;;;12.99;65.32;100596.41;5094878;28;20023;-69
2022/05/07 02:27:00;;;;;;;;;;;;;;;12.99;65.12;100591.22;5093501;28;20341;-68
2022/05/07 02:29:46;;;;;;;;;;;;;;;12.98;65.21;100594.66;5094783;28;19927;-69
2022/05/07 02:32:30;;;;;;;;;;;;;;;12.97;64.99;100590.31;5094466;28;19927;-69
2022/05/07 02:35:15;;;;;;;;;;;;;;;12.96;65.16;100593.75;5095368;28;19927;-68
2022/05/07 02:37:59;;;;;;;;;;;;;;;12.97;65.15;100589.41;5095193;28;20286;-68
2022/05/07 02:43:45;;;;;;;;;;;;;;;12.97;64.85;100587.69;5095144;28;19926;-69
2022/05/07 02:46:29;;;;;;;;;;;;;;;12.97;65.06;100600.72;5094906;28;20314;-68
2022/05/07 02:49:13;;;;;;;;;;;;;;;12.99;65.06;100598.13;5094139;28;19970;-68
2022/05/07 02:51:57;;;;;;;;;;;;;;;12.98;65.19;100592.06;5094618;28;19985;-69
2022/05/07 02:54:41;;;;;;;;;;;;;;;12.98;65.29;100593.75;5095046;28;20057;-69
2022/05/07 02:57:25;;;;;;;;;;;;;;;12.98;65.15;100594.66;5094009;28;19943;-68
2022/05/07 03:00:09;;;;;;;;;;;;;;;12.97;64.96;100587.69;5094786;28;19927;-69
2022/05/07 03:02:53;;;;;;;;;;;;;;;12.95;65.03;100582.47;5094427;28;20321;-69
2022/05/07 03:05:37;;;;;;;;;;;;;;;12.97;65.09;100584.22;5094077;28;19926;-69
2022/05/07 03:08:21;;;;;;;;;;;;;;;12.97;65.02;100582.50;5095114;28;19966;-69
2022/05/07 03:11:05;;;;;;;;;;;;;;;12.98;65.00;100585.97;5095302;28;20032;-69
2022/05/07 03:13:49;;;;;;;;;;;;;;;12.99;65.03;100579.91;5094446;28;19977;-68
2022/05/07 03:16:38;;;;;;;;;;;;;;;12.98;65.03;100580.75;5093979;28;19970;-69
2022/05/07 03:19:22;;;;;;;;;;;;;;;12.98;64.83;100576.44;5093864;28;19969;-69
2022/05/07 03:22:06;;;;;;;;;;;;;;;12.98;65.00;100581.66;5094591;28;20317;-68
2022/05/07 03:24:50;;;;;;;;;;;;;;;12.98;64.84;100584.25;5094518;28;20448;-69
2022/05/07 03:27:34;;;;;;;;;;;;;;;12.97;65.01;100574.69;5094271;28;20032;-70
2022/05/07 03:30:18;;;;;;;;;;;;;;;12.99;65.00;100569.50;5094723;28;19926;-68
2022/05/07 03:33:02;;;;;;;;;;;;;;;12.99;64.92;100573.00;5094696;28;19926;-69
2022/05/07 03:35:47;;;;;;;;;;;;;;;12.99;65.09;100573.00;5093499;28;19950;-68
2022/05/07 03:38:31;;;;;;;;;;;;;;;12.97;65.02;100579.91;5093284;28;19973;-68
2022/05/07 03:41:15;;;;;;;;;;;;;;;12.98;65.12;100581.66;5093457;28;19958;-69
2022/05/07 03:43:58;;;;;;;;;;;;;;;12.96;64.77;100572.94;5122124;27;19926;-68
2022/05/07 03:46:45;;;;;;;;;;;;;;;12.94;65.05;100574.63;5094218;28;19978;-69
2022/05/07 03:49:29;;;;;;;;;;;;;;;12.93;64.96;100567.69;5094064;28;19931;-69
2022/05/07 03:55:16;;;;;;;;;;;;;;;12.92;64.99;100581.53;5094184;28;19943;-69
2022/05/07 03:58:00;;;;;;;;;;;;;;;12.92;64.93;100579.81;5093979;28;20424;-68
2022/05/07 04:00:44;;;;;;;;;;;;;;;12.91;64.96;100583.28;5093011;28;19970;-69
2022/05/07 04:03:29;;;;;;;;;;;;;;;12.89;64.69;100577.19;5092555;28;19927;-69
2022/05/07 04:06:13;;;;;;;;;;;;;;;12.88;64.85;100572.81;5093719;28;20006;-69
2022/05/07 04:08:57;;;;;;;;;;;;;;;12.88;64.77;100578.03;5093757;28;19966;-68
2022/05/07 04:11:41;;;;;;;;;;;;;;;12.89;64.90;100584.97;5094197;28;20378;-69
2022/05/07 04:14:28;;;;;;;;;;;;;;;12.88;65.01;100585.84;5092811;28;20319;-69
2022/05/07 04:17:12;;;;;;;;;;;;;;;12.89;64.87;100578.88;5094248;28;19959;-69
2022/05/07 04:19:56;;;;;;;;;;;;;;;12.88;65.15;100580.63;5093355;28;20064;-68
2022/05/07 04:22:40;;;;;;;;;;;;;;;12.89;65.19;100584.09;5093453;28;20074;-69
2022/05/07 04:25:24;;;;;;;;;;;;;;;12.88;64.99;100588.44;5093111;28;19927;-68
2022/05/07 04:28:08;;;;;;;;;;;;;;;12.90;65.18;100591.03;5094046;28;19970;-68
2022/05/07 04:30:52;;;;;;;;;;;;;;;12.91;65.19;100590.19;5093519;28;19935;-69
2022/05/07 04:33:36;;;;;;;;;;;;;;;12.91;65.21;100592.78;5093870;28;19954;-69
2022/05/07 04:36:19;;;;;;;;;;;;;;;12.92;65.22;100599.75;5093927;28;19969;-68
2022/05/07 04:39:03;;;;;;;;;;;;;;;12.94;65.18;100608.47;5093488;28;19927;-69
2022/05/07 04:41:47;;;;;;;;;;;;;;;12.94;65.18;100603.25;5093793;28;19962;-68
2022/05/07 04:44:31;;;;;;;;;;;;;;;12.91;65.06;100603.19;5092503;28;20028;-68
2022/05/07 04:47:15;;;;;;;;;;;;;;;12.90;65.22;100609.25;5093529;28;19947;-68
2022/05/07 04:49:59;;;;;;;;;;;;;;;12.91;65.21;100608.41;5095846;28;19963;-68
2022/05/07 04:52:43;;;;;;;;;;;;;;;12.91;65.20;100617.09;5096318;28;20428;-68
2022/05/07 04:55:27;;;;;;;;;;;;;;;12.91;65.11;100611.00;5097635;28;19962;-69
2022/05/07 04:58:10;;;;;;;;;;;;;;;12.89;65.14;100616.19;5096834;28;19965;-69
2022/05/07 05:00:55;;;;;;;;;;;;;;;12.90;65.21;100615.34;5097231;28;19927;-69
2022/05/07 05:03:43;;;;;;;;;;;;;;;12.89;65.32;100624.00;5097007;28;20428;-69
2022/05/07 05:06:28;;;;;;;;;;;;;;;12.90;65.48;100620.56;5096328;28;19926;-69
2022/05/07 05:09:14;;;;;;;;;;;;;;;12.90;65.38;100622.25;5097185;28;19927;-68
2022/05/07 05:11:58;;;;;;;;;;;;;;;12.90;65.21;100630.06;5096891;28;20299;-69
2022/05/07 05:17:46;;;;;;;;;;;;;;;12.89;65.55;100639.63;5097189;28;19978;-68
2022/05/07 05:20:29;;;;;;;;;;;;;;;12.88;65.44;100639.56;5096150;28;19930;-68
2022/05/07 05:23:16;;;;;;;;;;;;;;;12.87;65.25;100648.22;5095551;28;19965;-68
2022/05/07 05:26:00;;;;;;;;;;;;;;;12.88;65.33;100642.16;5124370;27;19930;-68
2022/05/07 05:28:47;;;;;;;;;;;;;;;12.88;65.52;100636.97;5096295;28;20307;-68
2022/05/07 05:31:31;;;;;;;;;;;;;;;12.88;65.59;100644.78;5095680;28;19986;-68
2022/05/07 05:34:15;;;;;;;;;;;;;;;12.88;65.89;100632.66;5096719;28;19949;-68
2022/05/07 05:36:59;;;;;;;;;;;;;;;12.89;65.68;100638.72;5095851;28;19963;-68
2022/05/07 05:39:44;;;;;;;;;;;;;;;12.90;65.74;100649.16;5096237;28;19928;-69
2022/05/07 05:42:28;;;;;;;;;;;;;;;12.90;65.82;100650.88;5095904;28;19966;-68
2022/05/07 05:45:12;;;;;;;;;;;;;;;12.91;65.82;100647.44;5096297;28;19926;-68
2022/05/07 05:47:56;;;;;;;;;;;;;;;12.90;65.67;100646.56;5096157;28;19927;-69
2022/05/07 05:50:40;;;;;;;;;;;;;;;12.91;65.69;100653.53;5096476;28;19933;-68
2022/05/07 05:53:23;;;;;;;;;;;;;;;12.92;65.62;100655.25;5096517;28;19978;-68
2022/05/07 05:56:07;;;;;;;;;;;;;;;12.92;65.80;100650.03;5095967;28;20432;-69
2022/05/07 05:58:51;;;;;;;;;;;;;;;12.91;65.79;100652.63;5095980;28;20389;-69
2022/05/07 06:01:35;;;;;;;;;;;;;;;12.91;65.96;100650.03;5095284;28;19926;-68
2022/05/07 06:04:19;;;;;;;;;;;;;;;12.92;66.07;100650.03;5095046;28;20042;-69
2022/05/07 06:07:04;;;;;;;;;;;;;;;12.92;66.08;100646.59;5095925;28;19928;-69
2022/05/07 06:09:47;;;;;;;;;;;;;;;12.92;66.11;100654.38;5096050;28;20279;-68
2022/05/07 06:12:34;;;;;;;;;;;;;;;12.93;66.09;100661.34;5096246;28;19965;-69
2022/05/07 06:15:18;;;;;;;;;;;;;;;12.92;66.08;100659.59;5095556;28;19927;-69
2022/05/07 06:18:02;;;;;;;;;;;;;;;12.92;66.09;100659.59;5095569;28;19989;-69
2022/05/07 06:20:48;;;;;;;;;;;;;;;12.91;66.15;100653.53;5124018;27;19926;-69
2022/05/07 06:23:35;;;;;;;;;;;;;;;12.92;66.11;100659.59;5094657;28;19965;-69
2022/05/07 06:29:31;;;;;;;;;;;;;;;12.90;66.16;100664.78;5095843;28;19928;-69
2022/05/07 06:32:15;;;;;;;;;;;;;;;12.92;66.32;100668.25;5094632;28;20021;-69
2022/05/07 06:34:59;;;;;;;;;;;;;;;12.92;66.24;100664.78;5094052;28;19974;-69
2022/05/07 06:37:48;;;;;;;;;;;;;;;12.92;66.20;100664.78;5095658;28;20298;-68
2022/05/07 06:40:38;;;;;;;;;;;;;;;12.91;66.04;100676.94;5094489;28;20341;-70
2022/05/07 06:43:23;;;;;;;;;;;;;;;12.93;66.29;100670.00;5094437;28;19966;-68
2022/05/07 06:46:07;;;;;;;;;;;;;;;12.93;66.46;100676.94;5095495;28;20381;-69
2022/05/07 06:48:53;;;;;;;;;;;;;;;12.95;66.38;100681.31;5095251;28;19927;-69
2022/05/07 06:51:37;;;;;;;;;;;;;;;12.94;66.47;100681.31;5094927;28;19927;-68
2022/05/07 06:54:22;;;;;;;;;;;;;;;12.95;66.35;100677.84;5094865;28;19966;-68
2022/05/07 06:57:15;;;;;;;;;;;;;;;12.96;66.33;100674.41;5122843;27;19927;-69
2022/05/07 06:59:59;;;;;;;;;;;;;;;12.96;66.44;100677.00;5094294;28;20333;-69
2022/05/07 07:02:43;;;;;;;;;;;;;;;12.95;66.42;100685.66;5094694;28;19973;-68
2022/05/07 07:05:30;;;;;;;;;;;;;;;12.95;66.27;100670.91;5094111;28;20010;-68
2022/05/07 07:08:14;;;;;;;;;;;;;;;12.97;66.32;100676.16;5094607;28;19927;-68
2022/05/07 07:10:58;;;;;;;;;;;;;;;12.96;66.60;100677.00;5093497;28;19935;-68
2022/05/07 07:13:43;;;;;;;;;;;;;;;12.96;66.35;100677.00;5093762;28;19943;-69
2022/05/07 07:16:27;;;;;;;;;;;;;;;12.98;66.54;100672.72;5093355;28;19943;-68
2022/05/07 07:19:11;;;;;;;;;;;;;;;12.97;66.68;100673.56;5094468;28;19931;-68
2022/05/07 07:21:56;;;;;;;;;;;;;;;12.98;66.54;100672.72;5094755;28;19989;-68
2022/05/07 07:24:40;;;;;;;;;;;;;;;12.97;66.48;100673.56;5094568;28;19969;-68
2022/05/07 07:27:24;;;;;;;;;;;;;;;12.99;66.63;100671.84;5094286;28;19985;-68
2022/05/07 07:30:08;;;;;;;;;;;;;;;13.00;66.64;100675.31;5094210;28;19943;-69
2022/05/07 07:32:57;;;;;;;;;;;;;;;13.00;66.62;100676.19;5093905;28;20005;-69
2022/05/07 07:35:43;;;;;;;;;;;;;;;13.00;66.49;100678.78;5093274;28;19978;-68
2022/05/07 07:38:27;;;;;;;;;;;;;;;13.00;66.69;100680.53;5093139;28;19927;-69
2022/05/07 07:41:11;;;;;;;;;;;;;;;13.01;66.72;100679.69;5093277;28;19969;-68
2022/05/07 07:43:57;;;;;;;;;;;;;;;13.02;66.45;100679.69;5093804;28;20019;-69
2022/05/07 07:49:44;;;;;;;;;;;;;;;13.02;66.74;100671.88;5094076;28;19928;-69
2022/05/07 07:52:28;;;;;;;;;;;;;;;13.02;66.61;100679.69;5094531;28;19928;-69
2022/05/07 07:55:12;;;;;;;;;;;;;;;13.04;66.39;100678.00;5094110;28;20287;-69
2022/05/07 07:57:56;;;;;;;;;;;;;;;13.03;66.75;100678.84;5094492;28;19974;-69
2022/05/07 08:00:42;;;;;;;;;;;;;;;13.05;66.95;100676.28;5093085;28;19972;-68
2022/05/07 08:03:29;;;;;;;;;;;;;;;13.05;66.66;100682.34;5093450;28;19926;-69
2022/05/07 08:06:14;;;;;;;;;;;;;;;13.05;66.84;100678.88;5093022;28;19957;-68
2022/05/07 08:12:04;;;;;;;;;;;;;;;13.06;66.81;100678.03;5094261;28;19943;-69
2022/05/07 08:14:51;;;;;;;;;;;;;;;13.06;66.87;100681.50;5094206;28;19927;-68
2022/05/07 08:17:35;;;;;;;;;;;;;;;13.05;66.96;100684.09;5121539;28;19927;-68
2022/05/07 08:20:19;;;;;;;;;;;;;;;13.05;66.74;100682.34;5092887;28;19969;-69
2022/05/07 08:23:03;;;;;;;;;;;;;;;13.06;66.72;100685.84;5093836;28;19927;-69
2022/05/07 08:25:50;;;;;;;;;;;;;;;13.07;66.83;100679.78;5098242;28;19946;-69
2022/05/07 08:28:38;;;;;;;;;;;;;;;13.06;66.63;100694.50;5097907;28;19927;-69
2022/05/07 08:31:23;;;;;;;;;;;;;;;13.07;66.88;100693.66;5097526;28;19928;-69
2022/05/07 08:34:06;;;;;;;;;;;;;;;13.07;66.99;100688.47;5097152;28;19966;-69
2022/05/07 08:36:53;;;;;;;;;;;;;;;13.08;66.93;100697.13;5096838;28;19931;-68
2022/05/07 08:39:37;;;;;;;;;;;;;;;13.08;66.88;100686.72;5096843;28;19927;-68
2022/05/07 08:42:21;;;;;;;;;;;;;;;13.08;66.93;100687.59;5097201;28;19927;-69
2022/05/07 08:45:06;;;;;;;;;;;;;;;13.08;66.69;100691.91;5097888;28;19927;-69
2022/05/07 08:47:53;;;;;;;;;;;;;;;13.08;67.21;100695.41;5097679;28;20019;-69
2022/05/07 08:50:40;;;;;;;;;;;;;;;13.09;67.03;100691.97;5097838;28;19931;-69
2022/05/07 08:53:27;;;;;;;;;;;;;;;13.09;66.68;100688.47;5096760;28;19967;-69
2022/05/07 08:56:14;;;;;;;;;;;;;;;13.09;67.00;100685.88;5096452;28;19963;-69
2022/05/07 08:58:59;;;;;;;;;;;;;;;13.09;67.25;100699.78;5096402;28;19927;-69
2022/05/07 09:01:43;;;;;;;;;;;;;;;13.09;67.06;100694.56;5097067;28;19927;-68
2022/05/07 09:04:27;;;;;;;;;;;;;;;13.10;66.84;100704.13;5097314;28;19978;-69
2022/05/07 09:07:14;;;;;;;;;;;;;;;13.12;67.19;100692.88;5096917;28;20402;-69
2022/05/07 09:10:01;;;;;;;;;;;;;;;13.12;67.00;100698.94;5097015;28;19942;-69
2022/05/07 09:12:46;;;;;;;;;;;;;;;13.13;67.10;100697.22;5097652;28;19967;-68
2022/05/07 09:15:30;;;;;;;;;;;;;;;13.13;66.94;100690.28;5096550;28;19973;-69
2022/05/07 09:18:15;;;;;;;;;;;;;;;13.13;67.10;100687.69;5096929;28;20398;-69
2022/05/07 09:21:16;;;;;;;;;;;;;;;13.15;66.98;100688.56;5096432;28;19928;-69
2022/05/07 09:24:05;;;;;;;;;;;;;;;13.15;67.15;100685.13;5096454;28;20363;-69
2022/05/07 09:26:49;;;;;;;;;;;;;;;13.16;67.09;100684.22;5095451;28;19927;-69
2022/05/07 09:29:33;;;;;;;;;;;;;;;13.16;67.06;100673.81;5095521;28;20282;-68
2022/05/07 09:32:17;;;;;;;;;;;;;;;13.18;67.05;100679.94;5096748;28;19989;-69
2022/05/07 09:38:05;;;;;;;;;;;;;;;13.20;67.25;100679.13;5096531;28;19927;-69
2022/05/07 09:40:49;;;;;;;;;;;;;;;13.21;67.28;100679.97;5096185;28;20326;-68
2022/05/07 09:43:33;;;;;;;;;;;;;;;13.23;66.87;100673.97;5096053;28;19935;-69
2022/05/07 09:46:17;;;;;;;;;;;;;;;13.25;67.18;100680.03;5095986;28;20390;-68
2022/05/07 09:49:03;;;;;;;;;;;;;;;13.25;67.28;100677.44;5096024;28;19991;-69
2022/05/07 09:51:48;;;;;;;;;;;;;;;13.27;67.18;100664.47;5096506;28;19974;-68
2022/05/07 09:57:39;;;;;;;;;;;;;;;13.30;67.09;100667.13;5096168;28;19927;-69
2022/05/07 10:00:26;;;;;;;;;;;;;;;13.32;67.04;100668.00;5096200;28;19927;-69
2022/05/07 10:03:15;;;;;;;;;;;;;;;13.34;67.09;100662.84;5096034;28;20402;-68
2022/05/07 10:05:59;;;;;;;;;;;;;;;13.36;67.17;100666.34;5095111;28;20009;-70
2022/05/07 10:09:06;;;;;;;;;;;;;;;13.35;67.03;100670.66;5094874;28;19928;-68
2022/05/07 10:11:57;;;;;;;;;;;;;;;13.35;66.88;100657.63;5088605;28;20013;-69
2022/05/07 10:14:42;;;;;;;;;;;;;;;13.36;67.22;100662.00;5124063;27;19928;-68
2022/05/07 10:17:29;;;;;;;;;;;;;;;13.38;67.09;100665.50;5095348;28;19942;-69
2022/05/07 10:20:20;;;;;;;;;;;;;;;13.38;67.07;100655.09;5095937;28;19927;-69
2022/05/07 10:23:08;;;;;;;;;;;;;;;13.39;67.05;100661.19;5094488;28;20016;-68
2022/05/07 10:25:58;;;;;;;;;;;;;;;13.40;67.20;100657.72;5094107;28;19927;-68
2022/05/07 10:28:45;;;;;;;;;;;;;;;13.39;67.12;100661.19;5095774;28;19927;-69
2022/05/07 10:31:29;;;;;;;;;;;;;;;13.39;67.19;100664.66;5094903;28;19927;-67
2022/05/07 10:34:26;;;;;;;;;;;;;;;13.41;67.17;100664.69;5094781;28;19927;-68
2022/05/07 10:37:11;;;;;;;;;;;;;;;13.43;67.29;100659.53;5094517;28;19969;-69
2022/05/07 10:39:55;;;;;;;;;;;;;;;13.43;67.49;100657.78;5095232;28;20333;-69
2022/05/07 10:42:40;;;;;;;;;;;;;;;13.43;67.34;100664.72;5095740;28;19931;-69
2022/05/07 10:45:24;;;;;;;;;;;;;;;13.44;67.23;100663.88;5094247;28;19927;-69
2022/05/07 10:48:18;;;;;;;;;;;;;;;13.45;67.25;100663.03;5094510;28;19973;-69
2022/05/07 10:51:02;;;;;;;;;;;;;;;13.46;67.48;100662.19;5094648;28;19927;-69
2022/05/07 10:53:49;;;;;;;;;;;;;;;13.46;67.26;100664.78;5094291;28;19927;-69
2022/05/07 10:56:34;;;;;;;;;;;;;;;13.46;67.07;100660.44;5094348;28;19974;-68
2022/05/07 10:59:20;;;;;;;;;;;;;;;13.47;67.26;100666.53;5094550;28;19970;-69
2022/05/07 11:02:05;;;;;;;;;;;;;;;13.47;67.38;100671.75;5094909;28;20271;-69
2022/05/07 11:04:52;;;;;;;;;;;;;;;13.48;67.24;100663.03;5093898;28;19927;-69
2022/05/07 11:07:36;;;;;;;;;;;;;;;13.49;67.40;100664.78;5094657;28;19966;-69
2022/05/07 11:10:20;;;;;;;;;;;;;;;13.48;67.18;100665.66;5093781;28;19927;-68
2022/05/07 11:13:05;;;;;;;;;;;;;;;13.50;67.27;100663.94;5094769;28;20402;-69
2022/05/07 11:16:02;;;;;;;;;;;;;;;13.51;67.63;100666.59;5093596;28;19970;-68
2022/05/07 11:18:51;;;;;;;;;;;;;;;13.53;67.30;100658.78;5093833;28;19974;-69
2022/05/07 11:21:36;;;;;;;;;;;;;;;13.52;67.23;100655.31;5093941;28;20013;-69
2022/05/07 11:24:21;;;;;;;;;;;;;;;13.52;67.28;100649.22;5094838;28;19942;-68
2022/05/07 11:27:11;;;;;;;;;;;;;;;13.53;67.37;100646.66;5093584;28;19927;-69
2022/05/07 11:29:57;;;;;;;;;;;;;;;13.55;67.41;100647.53;5094285;28;20299;-69
2022/05/07 11:32:42;;;;;;;;;;;;;;;13.55;67.32;100631.91;5093406;28;19927;-69
2022/05/07 11:35:26;;;;;;;;;;;;;;;13.55;67.41;100642.31;5093552;28;19959;-70
2022/05/07 11:38:13;;;;;;;;;;;;;;;13.57;67.28;100634.53;5093874;28;19966;-69
2022/05/07 11:41:07;;;;;;;;;;;;;;;13.58;67.27;100627.59;5094538;28;19988;-69
2022/05/07 11:46:55;;;;;;;;;;;;;;;13.60;67.24;100628.50;5094766;28;20385;-69
2022/05/07 11:49:41;;;;;;;;;;;;;;;13.63;67.28;100631.13;5093751;28;19969;-69
2022/05/07 11:52:28;;;;;;;;;;;;;;;13.62;67.43;100622.47;5093932;28;19927;-69
2022/05/07 11:55:16;;;;;;;;;;;;;;;13.66;67.38;100621.63;5094159;28;19966;-69
2022/05/07 11:58:12;;;;;;;;;;;;;;;13.69;67.33;100619.06;5092735;28;20020;-69
2022/05/07 12:00:56;;;;;;;;;;;;;;;13.71;67.24;100624.28;5092985;28;20286;-69
2022/05/07 12:03:39;;;;;;;;;;;;;;;13.73;67.40;100619.09;5093238;28;20303;-69
2022/05/07 12:06:24;;;;;;;;;;;;;;;13.74;67.39;100606.09;5093134;28;19927;-69
2022/05/07 12:09:13;;;;;;;;;;;;;;;13.75;67.40;100602.63;5094223;28;19927;-68
2022/05/07 12:12:03;;;;;;;;;;;;;;;13.78;67.22;100607.03;5093005;28;20321;-68
2022/05/07 12:14:49;;;;;;;;;;;;;;;13.78;67.28;100599.22;5092969;28;20432;-70
2022/05/07 12:17:52;;;;;;;;;;;;;;;13.80;67.17;100600.97;5092998;28;19927;-69
2022/05/07 12:20:36;;;;;;;;;;;;;;;13.82;67.28;100603.56;5093774;28;19927;-70
2022/05/07 12:32:26;;;;;;;;;;;;;;;13.87;67.18;100599.31;5093844;28;19927;-69
2022/05/07 12:35:11;;;;;;;;;;;;;;;13.86;67.13;100593.19;5092625;28;19973;-68
2022/05/07 12:37:59;;;;;;;;;;;;;;;13.88;67.11;100590.63;5093080;28;20440;-69
2022/05/07 12:40:42;;;;;;;;;;;;;;;13.91;67.01;100588.06;5092739;28;20425;-69
2022/05/07 12:43:29;;;;;;;;;;;;;;;13.93;66.99;100575.03;5093824;28;20381;-69
2022/05/07 12:46:15;;;;;;;;;;;;;;;13.95;67.10;100579.41;5092566;28;19927;-69
2022/05/07 12:48:59;;;;;;;;;;;;;;;13.95;67.04;100581.16;5092429;28;20005;-69
2022/05/07 12:51:43;;;;;;;;;;;;;;;13.96;67.12;100582.91;5093079;28;19927;-69
2022/05/07 12:54:27;;;;;;;;;;;;;;;13.98;67.09;100578.59;5092852;28;19931;-69
2022/05/07 12:57:14;;;;;;;;;;;;;;;14.00;67.05;100576.88;5093312;28;19931;-70
2022/05/07 12:59:58;;;;;;;;;;;;;;;14.02;67.04;100575.13;5092487;28;20283;-69
2022/05/07 13:02:42;;;;;;;;;;;;;;;14.03;67.05;100569.06;5093401;28;19973;-69
2022/05/07 13:05:26;;;;;;;;;;;;;;;14.03;67.11;100573.41;5092384;28;19935;-69
2022/05/07 13:08:10;;;;;;;;;;;;;;;14.03;67.01;100571.66;5092412;28;19973;-69
2022/05/07 13:10:54;;;;;;;;;;;;;;;14.07;66.96;100572.59;5095887;28;20061;-69
2022/05/07 13:13:38;;;;;;;;;;;;;;;14.08;66.82;100576.94;5097227;28;20379;-69
2022/05/07 13:16:22;;;;;;;;;;;;;;;14.08;67.06;100572.59;5096755;28;20294;-70
2022/05/07 13:19:06;;;;;;;;;;;;;;;14.09;66.99;100563.06;5096067;28;19975;-69
2022/05/07 13:21:50;;;;;;;;;;;;;;;14.08;66.98;100570.00;5096452;28;19927;-69
2022/05/07 13:24:34;;;;;;;;;;;;;;;14.09;66.83;100563.91;5096776;28;20006;-69
2022/05/07 13:27:18;;;;;;;;;;;;;;;14.12;67.07;100563.97;5096253;28;20424;-70
2022/05/07 13:30:02;;;;;;;;;;;;;;;14.13;67.08;100562.22;5096663;28;19927;-69
2022/05/07 13:32:47;;;;;;;;;;;;;;;14.14;66.97;100561.34;5095789;28;19927;-69
2022/05/07 13:35:33;;;;;;;;;;;;;;;14.13;66.94;100568.31;5096655;28;20025;-69
2022/05/07 13:38:18;;;;;;;;;;;;;;;14.14;67.01;100561.34;5096110;28;19943;-69
2022/05/07 13:41:02;;;;;;;;;;;;;;;14.16;67.05;100557.03;5095589;28;19927;-70
2022/05/07 13:44:20;;;;;;;12.82;9.35;;;;;;;14.16;66.94;100557.03;5131423;27;20143;-69
2022/05/07 13:47:04;;;;;;;;;;;;;;;14.15;66.72;100561.38;5132463;28;20575;-69
2022/05/07 13:49:49;;;;;;;16.40;9.63;;;;;;;14.14;66.94;100559.63;5145744;27;19922;-69
2022/05/07 13:52:34;;;;;;;;;;;;;;;14.13;66.99;100560.50;5116219;28;20574;-69
2022/05/07 13:55:20;;;;;;;20.42;11.23;;;;;;;14.14;66.90;100567.47;5116823;28;19921;-70
2022/05/07 13:58:05;;;;;;;13.10;9.70;;;;;;;14.14;67.04;100564.84;5115947;28;20100;-69
2022/05/07 14:00:49;;;;;;;18.77;9.38;;;;;;;14.17;67.12;100564.00;5132150;28;20131;-70
2022/05/07 14:03:33;;;;;;;16.38;9.85;;;;;;;14.18;66.89;100557.91;5116363;28;20516;-70
2022/05/07 14:06:19;;;;;;;14.68;10.10;;;;;;;14.19;67.00;100558.78;5131623;28;20054;-69
2022/05/07 14:09:06;;;;;;;15.60;8.65;;;;;;;14.19;67.04;100561.38;5131069;28;20184;-69
2022/05/07 14:11:53;;;;;;;12.75;9.30;;;;;;;14.20;66.98;100557.94;5131496;28;20046;-69
2022/05/07 14:14:37;;;;;;;16.08;9.65;;;;;;;14.20;66.59;100555.31;5131473;28;20042;-69
2022/05/07 14:17:22;;;;;;;14.93;9.20;;;;;;;14.21;66.91;100560.56;5116046;28;20520;-69
2022/05/07 14:20:07;;;;;;;12.13;9.23;;;;;;;14.19;67.16;100556.19;5130783;28;20054;-69
2022/05/07 14:22:51;;;;;;;;;;;;;;;14.17;66.79;100566.59;5131074;28;20051;-69
2022/05/07 14:25:40;;;;;;;14.98;8.60;;;;;;;14.19;66.85;100569.22;5130677;28;20003;-70
2022/05/07 14:28:27;;;;;;;14.95;8.98;;;;;;;14.19;66.85;100569.22;5115794;28;20045;-69
2022/05/07 14:31:17;;;;;;;13.73;9.02;;;;;;;14.23;67.02;100571.88;5115201;28;20062;-69
2022/05/07 14:34:01;;;;;;;16.35;9.57;;;;;;;14.26;67.09;100579.72;5130974;28;20074;-70
2022/05/07 14:36:51;;;;;;;;;;;;;;;14.28;66.98;100578.00;5115318;28;20050;-69
2022/05/07 14:39:38;;;;;;;17.45;8.95;;;;;;;14.25;66.94;100567.53;5115379;28;19966;-70
2022/05/07 14:42:27;;;;;;;18.05;8.80;;;;;;;14.26;66.76;100565.81;5114761;28;20098;-70
2022/05/07 14:45:14;;;;;;;9.70;8.15;;;;;;;14.27;66.99;100576.25;5115796;28;20058;-69
2022/05/07 14:47:59;;;;;;;16.40;8.90;;;;;;;14.29;66.89;100573.66;5130907;28;20051;-70